Time;durP1;ratioP1;P1;durP2;ratioP2;P2;SDS_P1;SDS_P2;PMS_P1;PMS_P2;Temp;Humidity;BMP_temperature;BMP_pressure;BME280_temperature;BME280_humidity;BME280_pressure;Samples;Min_cycle;Max_cycle;Signal;HPM_P1;HPM_P2
2022/03/25 00:00:50;;;;;;;12.10;5.70;;;;;;;5.13;27.07;100744.19;117430;1186;21859;-85
2022/03/25 00:03:21;;;;;;;8.50;5.30;;;;;;;5.11;27.19;100742.41;117490;1186;23615;-85
2022/03/25 00:05:56;;;;;;;10.50;6.50;;;;;;;5.06;27.36;100741.13;117449;1186;21958;-84
2022/03/25 00:08:24;;;;;;;9.90;6.70;;;;;;;5.03;27.32;100743.17;117434;1186;21852;-84
2022/03/25 00:10:55;;;;;;;;;;;;;;;4.97;27.52;100744.63;117600;1185;22624;-85
2022/03/25 00:13:26;;;;;;;10.30;5.20;;;;;;;4.91;27.50;100744.17;117396;1187;21851;-85
2022/03/25 00:15:57;;;;;;;10.50;5.80;;;;;;;4.88;27.57;100740.11;117449;1186;23541;-85
2022/03/25 00:18:26;;;;;;;8.40;5.40;;;;;;;4.86;27.62;100740.95;117317;1187;21868;-85
2022/03/25 00:20:59;;;;;;;9.90;6.00;;;;;;;4.80;27.63;100740.85;117373;1187;23563;-85
2022/03/25 00:23:28;;;;;;;11.40;7.10;;;;;;;4.75;27.51;100744.77;117394;1183;22910;-87
2022/03/25 00:25:56;;;;;;;10.70;5.60;;;;;;;4.71;27.61;100743.48;117447;1186;22291;-85
2022/03/25 00:28:25;;;;;;;9.10;5.30;;;;;;;4.69;27.59;100740.84;117340;1188;21854;-84
2022/03/25 00:30:54;;;;;;;12.10;6.20;;;;;;;4.65;27.67;100741.48;117504;1186;22222;-84
2022/03/25 00:33:23;;;;;;;10.60;5.70;;;;;;;4.59;27.71;100738.95;117374;1188;22341;-85
2022/03/25 00:35:52;;;;;;;10.40;5.20;;;;;;;4.52;27.68;100734.99;117426;1186;22917;-84
2022/03/25 00:38:21;;;;;;;12.90;5.70;;;;;;;4.49;27.68;100734.40;117430;1186;21960;-83
2022/03/25 00:40:50;;;;;;;11.50;6.00;;;;;;;4.45;27.90;100729.82;117472;1187;22638;-83
2022/03/25 00:43:20;;;;;;;9.40;5.80;;;;;;;4.42;27.88;100727.67;117530;1185;23423;-83
2022/03/25 00:45:51;;;;;;;14.80;6.10;;;;;;;4.39;27.70;100724.48;117473;1185;21861;-84
2022/03/25 00:48:20;;;;;;;11.30;6.80;;;;;;;4.35;27.92;100725.30;117385;1185;21843;-83
2022/03/25 00:50:50;;;;;;;14.00;5.80;;;;;;;4.33;27.95;100725.60;117530;1185;23534;-85
2022/03/25 00:53:19;;;;;;;10.90;5.30;;;;;;;4.31;27.86;100724.01;117391;1185;21852;-84
2022/03/25 00:55:49;;;;;;;9.60;5.60;;;;;;;4.30;28.15;100718.77;117621;1185;22817;-84
2022/03/25 00:58:19;;;;;;;10.60;6.00;;;;;;;4.29;28.10;100716.16;117498;1185;23657;-84
2022/03/25 01:00:48;;;;;;;11.20;6.10;;;;;;;4.29;28.22;100710.77;117435;1187;22915;-84
2022/03/25 01:03:18;;;;;;;10.20;6.40;;;;;;;4.28;28.32;100710.73;117443;1187;23461;-84
2022/03/25 01:05:49;;;;;;;10.50;6.20;;;;;;;4.26;28.10;100711.58;117440;1186;23083;-83
2022/03/25 01:08:17;;;;;;;10.40;5.90;;;;;;;4.27;28.31;100709.68;117374;1183;21857;-84
2022/03/25 01:10:46;;;;;;;9.70;5.40;;;;;;;4.29;28.16;100707.13;117450;1186;22120;-84
2022/03/25 01:13:15;;;;;;;9.60;5.50;;;;;;;4.29;28.24;100699.81;117523;1186;21850;-84
2022/03/25 01:15:45;;;;;;;9.10;5.80;;;;;;;4.32;28.34;100693.61;117359;1187;23451;-85
2022/03/25 01:18:13;;;;;;;8.80;6.10;;;;;;;4.34;28.29;100695.39;117441;1186;21884;-84
2022/03/25 01:20:43;;;;;;;11.00;6.30;;;;;;;4.34;28.29;100697.47;117339;1187;22909;-84
2022/03/25 01:23:12;;;;;;;9.90;6.00;;;;;;;4.30;28.28;100695.84;117438;1186;22979;-84
2022/03/25 01:25:41;;;;;;;8.50;5.00;;;;;;;4.27;28.34;100694.04;117384;1187;22332;-85
2022/03/25 01:28:10;;;;;;;8.80;5.60;;;;;;;4.25;28.42;100694.18;117277;1186;21856;-85
2022/03/25 01:30:38;;;;;;;9.10;4.80;;;;;;;4.26;28.54;100694.19;117396;1183;21859;-83
2022/03/25 01:33:09;;;;;;;8.30;5.30;;;;;;;4.24;28.70;100698.33;117440;1186;22804;-84
2022/03/25 01:35:38;;;;;;;11.80;5.50;;;;;;;4.22;28.40;100696.56;117346;1187;22328;-84
2022/03/25 01:38:09;;;;;;;7.50;5.30;;;;;;;4.21;28.30;100696.52;117441;1186;21849;-84
2022/03/25 01:40:38;;;;;;;9.60;5.50;;;;;;;4.16;28.27;100695.77;117342;1187;24226;-84
2022/03/25 01:43:08;;;;;;;11.00;5.80;;;;;;;4.12;28.49;100696.37;117464;1186;23439;-84
2022/03/25 01:45:37;;;;;;;8.70;5.50;;;;;;;4.10;28.76;100697.02;117452;1187;22199;-84
2022/03/25 01:48:11;;;;;;;11.40;5.70;;;;;;;4.06;28.57;100695.91;117324;1187;23460;-84
2022/03/25 01:50:41;;;;;;;14.00;5.80;;;;;;;4.02;28.70;100696.17;117441;1186;21852;-84
2022/03/25 01:53:13;;;;;;;;;;;;;;;3.98;28.74;100695.41;117537;1186;21846;-84
2022/03/25 01:55:50;;;;;;;9.10;5.70;;;;;;;3.94;28.65;100699.50;117461;1186;22110;-83
2022/03/25 01:58:20;;;;;;;11.20;6.60;;;;;;;3.87;28.70;100702.83;117478;1188;23638;-84
2022/03/25 02:00:48;;;;;;;10.30;6.40;;;;;;;3.82;28.76;100701.35;117291;1188;21870;-84
2022/03/25 02:03:19;;;;;;;11.10;5.70;;;;;;;3.80;28.77;100700.95;117439;1187;22815;-85
2022/03/25 02:05:49;;;;;;;11.30;6.30;;;;;;;3.77;28.83;100696.89;117248;1188;21851;-84
2022/03/25 02:08:18;;;;;;;8.20;5.50;;;;;;;3.75;28.81;100695.81;117324;1188;22840;-84
2022/03/25 02:11:09;;;;;;;14.80;6.30;;;;;;;3.72;28.91;100694.21;117378;1186;23005;-85
2022/03/25 02:13:37;;;;;;;11.30;5.50;;;;;;;3.69;28.73;100698.13;117334;1187;21851;-84
2022/03/25 02:16:45;;;;;;;9.40;5.80;;;;;;;3.63;28.78;100693.84;117460;1186;22054;-85
2022/03/25 02:19:18;;;;;;;9.00;5.40;;;;;;;3.56;28.78;100696.63;117416;1186;24291;-84
2022/03/25 02:22:08;;;;;;;10.80;5.60;;;;;;;3.50;28.86;100697.38;117312;1188;21860;-84
2022/03/25 02:24:37;;;;;;;10.10;6.00;;;;;;;3.44;28.91;100699.33;117321;1186;22814;-85
2022/03/25 02:27:06;;;;;;;16.80;7.70;;;;;;;3.38;29.10;100695.90;117313;1183;21874;-84
2022/03/25 02:29:45;;;;;;;10.70;6.30;;;;;;;3.37;29.09;100698.98;117341;1186;21855;-84
2022/03/25 02:32:14;;;;;;;10.30;6.20;;;;;;;3.37;29.20;100697.25;117474;1186;21853;-84
2022/03/25 02:34:42;;;;;;;10.00;6.50;;;;;;;3.37;29.13;100694.14;117378;1186;23504;-85
2022/03/25 02:37:12;;;;;;;10.10;6.30;;;;;;;3.38;29.09;100693.13;117428;1185;21843;-84
2022/03/25 02:39:41;;;;;;;12.30;7.30;;;;;;;3.39;29.30;100697.14;117503;1186;23903;-84
2022/03/25 02:42:10;;;;;;;11.30;6.20;;;;;;;3.41;29.24;100702.58;117332;1187;21898;-85
2022/03/25 02:44:42;;;;;;;11.40;6.50;;;;;;;3.44;29.31;100707.30;117403;1186;22413;-84
2022/03/25 02:47:11;;;;;;;11.80;6.50;;;;;;;3.43;29.37;100706.95;117463;1186;23012;-84
2022/03/25 02:49:41;;;;;;;10.50;6.60;;;;;;;3.45;29.40;100703.16;117429;1186;21851;-85
2022/03/25 02:52:10;;;;;;;15.60;7.40;;;;;;;3.50;29.65;100703.46;117453;1186;23558;-85
2022/03/25 02:54:40;;;;;;;12.30;6.50;;;;;;;3.61;29.82;100706.46;117217;1186;23653;-85
2022/03/25 02:57:09;;;;;;;11.60;6.80;;;;;;;3.76;29.89;100703.80;117397;1187;22343;-84
2022/03/25 02:59:38;;;;;;;11.00;6.70;;;;;;;3.92;29.99;100702.23;117308;1187;22810;-84
2022/03/25 03:02:07;;;;;;;12.90;6.90;;;;;;;4.06;29.87;100698.34;117353;1187;21846;-85
2022/03/25 03:04:37;;;;;;;10.00;6.10;;;;;;;4.21;29.82;100701.73;117389;1185;21895;-84
2022/03/25 03:07:07;;;;;;;10.10;6.20;;;;;;;4.33;30.17;100701.27;117457;1186;22639;-83
2022/03/25 03:09:36;;;;;;;11.10;6.70;;;;;;;4.40;30.08;100698.12;117264;1188;21850;-83
2022/03/25 03:12:06;;;;;;;14.80;7.30;;;;;;;4.44;30.24;100691.74;117416;1186;22305;-83
2022/03/25 03:14:36;;;;;;;9.40;6.50;;;;;;;4.50;30.05;100691.67;117371;1187;22670;-83
2022/03/25 03:17:24;;;;;;;12.60;6.70;;;;;;;4.58;29.98;100683.14;117436;1186;21903;-84
2022/03/25 03:19:55;;;;;;;10.90;6.40;;;;;;;4.66;30.17;100677.69;117524;1185;21862;-84
2022/03/25 03:22:44;;;;;;;11.60;6.10;;;;;;;4.72;30.46;100671.70;117294;1187;21859;-84
2022/03/25 03:25:13;;;;;;;10.40;6.10;;;;;;;4.77;30.14;100670.23;117352;1187;21861;-83
2022/03/25 03:27:42;;;;;;;10.30;6.10;;;;;;;4.80;30.31;100670.27;117518;1185;21908;-83
2022/03/25 03:30:11;;;;;;;11.90;6.10;;;;;;;4.81;30.15;100674.46;117510;1185;21843;-84
2022/03/25 03:32:41;;;;;;;10.60;6.20;;;;;;;4.80;30.30;100680.73;117542;1185;21960;-84
2022/03/25 03:35:10;;;;;;;11.10;5.80;;;;;;;4.80;30.30;100682.09;117370;1186;22922;-83
2022/03/25 03:37:41;;;;;;;10.30;6.10;;;;;;;4.79;30.26;100688.85;117659;1185;22059;-84
2022/03/25 03:40:10;;;;;;;13.10;6.50;;;;;;;4.76;30.13;100687.23;117592;1185;21858;-84
2022/03/25 03:42:42;;;;;;;18.10;7.20;;;;;;;4.71;30.30;100684.55;117402;1185;23537;-84
2022/03/25 03:45:11;;;;;;;10.30;6.60;;;;;;;4.68;30.27;100685.89;117369;1187;24309;-83
2022/03/25 03:47:41;;;;;;;10.00;6.90;;;;;;;4.61;30.21;100684.23;117424;1188;23677;-82
2022/03/25 03:50:12;;;;;;;8.20;5.60;;;;;;;4.54;30.02;100685.48;117633;1185;22322;-83
2022/03/25 03:52:42;;;;;;;12.60;7.40;;;;;;;4.48;30.28;100688.14;117486;1186;22935;-83
2022/03/25 03:55:11;;;;;;;;;;;;;;;4.42;30.10;100693.45;117395;1188;21881;-84
2022/03/25 03:57:41;;;;;;;8.90;5.10;;;;;;;4.32;30.25;100686.67;117631;1185;22330;-83
2022/03/25 04:00:12;;;;;;;12.90;7.40;;;;;;;4.24;30.23;100694.15;117618;1185;22912;-83
2022/03/25 04:02:44;;;;;;;8.20;5.10;;;;;;;4.13;30.27;100692.41;117424;1188;22983;-84
2022/03/25 04:05:13;;;;;;;9.20;5.80;;;;;;;4.07;30.10;100691.05;117801;1185;22909;-84
2022/03/25 04:07:47;;;;;;;9.80;6.60;;;;;;;4.04;30.26;100691.52;117552;1185;21990;-83
2022/03/25 04:10:17;;;;;;;10.30;6.30;;;;;;;4.03;30.45;100697.40;117457;1187;21844;-82
2022/03/25 04:12:45;;;;;;;12.20;6.70;;;;;;;4.03;30.34;100694.29;117832;1182;22685;-83
2022/03/25 04:15:16;;;;;;;9.90;6.30;;;;;;;4.07;30.42;100690.88;117733;1186;21852;-83
2022/03/25 04:17:47;;;;;;;11.10;6.50;;;;;;;4.11;30.39;100689.08;117513;1182;22982;-84
2022/03/25 04:20:28;;;;;;;12.50;7.00;;;;;;;4.14;30.36;100687.03;117400;1187;21855;-84
2022/03/25 04:22:56;;;;;;;13.80;6.90;;;;;;;4.15;30.55;100690.16;117593;1185;22755;-84
2022/03/25 04:25:25;;;;;;;14.60;7.80;;;;;;;4.15;30.57;100691.74;117421;1186;23642;-83
2022/03/25 04:28:14;;;;;;;11.90;7.10;;;;;;;4.16;30.40;100694.38;117472;1186;21842;-84
2022/03/25 04:30:44;;;;;;;15.70;7.50;;;;;;;4.15;30.57;100697.14;117440;1186;21853;-84
2022/03/25 04:33:14;;;;;;;11.40;6.90;;;;;;;4.11;30.63;100697.56;117283;1188;21842;-84
2022/03/25 04:35:43;;;;;;;14.60;8.00;;;;;;;4.09;30.73;100698.05;117324;1187;22623;-83
2022/03/25 04:38:14;;;;;;;12.60;7.10;;;;;;;4.09;30.66;100698.91;117331;1187;23592;-83
2022/03/25 04:40:42;;;;;;;18.30;7.20;;;;;;;4.10;30.69;100699.29;117393;1186;23537;-84
2022/03/25 04:43:11;;;;;;;14.20;7.30;;;;;;;4.09;30.73;100698.05;117386;1186;21848;-84
2022/03/25 04:45:41;;;;;;;11.70;7.00;;;;;;;4.08;30.80;100697.67;117468;1186;22993;-84
2022/03/25 04:48:11;;;;;;;14.00;7.20;;;;;;;4.09;30.91;100696.48;117317;1188;21878;-84
2022/03/25 04:50:40;;;;;;;15.60;8.00;;;;;;;4.11;30.93;100700.52;117524;1185;22829;-85
2022/03/25 04:53:09;;;;;;;15.50;7.20;;;;;;;4.16;31.18;100699.59;117575;1185;21869;-85
2022/03/25 04:55:39;;;;;;;11.90;7.00;;;;;;;4.29;31.16;100702.41;117404;1186;21863;-85
2022/03/25 04:58:08;;;;;;;20.80;8.80;;;;;;;4.43;31.24;100701.64;117309;1188;22759;-84
2022/03/25 05:00:38;;;;;;;14.50;7.60;;;;;;;4.61;31.37;100701.42;117461;1186;22995;-85
2022/03/25 05:03:09;;;;;;;18.10;9.40;;;;;;;4.79;31.64;100702.61;117383;1188;22827;-86
2022/03/25 05:05:42;;;;;;;37.60;19.10;;;;;;;4.92;31.51;100703.15;117589;1185;22623;-87
2022/03/25 05:08:28;;;;;;;29.50;14.60;;;;;;;5.05;31.65;100703.00;117480;1185;21881;-86
2022/03/25 05:10:59;;;;;;;37.50;17.40;;;;;;;5.20;31.65;100698.53;117416;1188;22757;-86
2022/03/25 05:13:29;;;;;;;32.90;16.70;;;;;;;5.35;31.63;100700.84;117403;1186;22900;-86
2022/03/25 05:15:59;;;;;;;29.90;15.20;;;;;;;5.51;31.75;100701.06;117329;1186;22897;-86
2022/03/25 05:18:28;;;;;;;19.50;10.20;;;;;;;5.68;32.03;100699.73;117238;1187;22990;-86
2022/03/25 05:20:57;;;;;;;15.80;9.40;;;;;;;5.90;32.17;100700.86;117431;1186;21840;-87
2022/03/25 05:23:26;;;;;;;17.20;9.70;;;;;;;6.10;32.34;100708.10;117368;1187;23257;-84
2022/03/25 05:25:56;;;;;;;15.60;8.30;;;;;;;6.24;32.10;100711.56;117349;1188;22615;-84
2022/03/25 05:28:29;;;;;;;18.80;10.50;;;;;;;6.35;31.90;100708.02;117332;1188;22382;-83
2022/03/25 05:30:57;;;;;;;16.10;9.20;;;;;;;6.51;32.02;100710.09;117571;1185;21857;-84
2022/03/25 05:33:26;;;;;;;13.90;9.00;;;;;;;6.71;32.08;100713.59;117588;1185;21849;-85
2022/03/25 05:35:56;;;;;;;19.30;10.40;;;;;;;6.92;32.30;100719.34;117366;1185;22913;-84
2022/03/25 05:38:25;;;;;;;15.90;9.40;;;;;;;7.15;32.43;100717.61;117383;1187;22833;-83
2022/03/25 05:40:54;;;;;;;21.60;10.30;;;;;;;7.32;32.52;100715.63;117589;1183;22907;-83
2022/03/25 05:43:22;;;;;;;14.10;9.40;;;;;;;7.49;32.23;100709.96;117578;1185;21855;-85
2022/03/25 05:45:51;;;;;;;18.50;10.80;;;;;;;7.72;32.49;100711.48;117360;1188;22641;-84
2022/03/25 05:48:20;;;;;;;18.10;11.50;;;;;;;7.96;32.58;100715.60;117534;1185;21888;-84
2022/03/25 05:50:51;;;;;;;17.80;10.20;;;;;;;8.17;32.67;100718.46;117626;1185;21936;-85
2022/03/25 05:53:20;;;;;;;18.90;10.90;;;;;;;8.32;32.39;100718.86;117670;1185;21854;-83
2022/03/25 05:55:49;;;;;;;16.30;11.20;;;;;;;8.45;32.62;100728.16;117358;1187;21859;-86
2022/03/25 05:58:20;;;;;;;17.90;10.60;;;;;;;8.57;32.32;100729.09;117441;1185;23630;-84
2022/03/25 06:00:49;;;;;;;23.70;13.50;;;;;;;8.70;32.43;100726.65;117840;1185;22322;-84
2022/03/25 06:03:18;;;;;;;25.50;13.70;;;;;;;8.84;32.49;100727.55;117558;1185;22943;-83
2022/03/25 06:05:47;;;;;;;24.10;13.70;;;;;;;9.00;32.55;100725.27;117352;1188;22625;-83
2022/03/25 06:08:23;;;;;;;22.50;11.20;;;;;;;9.17;32.53;100721.05;117296;1186;22829;-85
2022/03/25 06:10:52;;;;;;;22.90;13.80;;;;;;;9.29;32.46;100722.77;117331;1187;21852;-85
2022/03/25 06:13:21;;;;;;;80.40;38.20;;;;;;;9.42;32.42;100726.27;117534;1185;23539;-83
2022/03/25 06:15:58;;;;;;;48.90;26.80;;;;;;;9.54;32.50;100728.52;117383;1187;24161;-83
2022/03/25 06:18:43;;;;;;;60.00;26.70;;;;;;;9.66;32.55;100728.84;117536;1185;22905;-83
2022/03/25 06:21:13;;;;;;;49.10;23.80;;;;;;;9.77;32.38;100727.75;117610;1185;23419;-82
2022/03/25 06:24:03;;;;;;;25.50;14.80;;;;;;;9.87;32.43;100724.56;117670;1185;21852;-85
2022/03/25 06:26:31;;;;;;;21.80;12.90;;;;;;;9.94;32.27;100721.55;117434;1185;21856;-84
2022/03/25 06:29:02;;;;;;;23.90;13.60;;;;;;;10.04;32.41;100718.70;117668;1185;22451;-85
2022/03/25 06:31:31;;;;;;;18.80;11.70;;;;;;;10.18;32.43;100717.41;117238;1187;22708;-84
2022/03/25 06:34:00;;;;;;;22.50;12.00;;;;;;;10.37;32.73;100718.02;117501;1185;22744;-85
2022/03/25 06:36:30;;;;;;;19.40;12.00;;;;;;;10.64;32.76;100722.60;117404;1186;22014;-85
2022/03/25 06:38:59;;;;;;;19.80;10.20;;;;;;;10.95;32.73;100724.11;117337;1187;21852;-85
2022/03/25 06:41:27;;;;;;;15.70;9.50;;;;;;;11.27;32.80;100729.27;117666;1185;23456;-85
2022/03/25 06:43:57;;;;;;;12.50;9.10;;;;;;;11.70;33.03;100732.00;117535;1186;22416;-86
2022/03/25 06:46:26;;;;;;;15.70;9.50;;;;;;;12.08;32.90;100731.03;117531;1185;21850;-86
2022/03/25 06:48:57;;;;;;;13.10;8.60;;;;;;;12.34;32.79;100731.77;117509;1185;21855;-87
2022/03/25 06:51:27;;;;;;;16.20;8.80;;;;;;;12.54;32.64;100735.88;117624;1185;21894;-87
2022/03/25 06:53:56;;;;;;;19.60;10.20;;;;;;;12.80;32.79;100734.77;117345;1187;21900;-88
2022/03/25 06:56:25;;;;;;;17.60;10.10;;;;;;;13.03;32.64;100735.64;117476;1186;22932;-87
2022/03/25 06:58:56;;;;;;;19.40;10.30;;;;;;;13.20;32.42;100733.95;117614;1185;21852;-87
2022/03/25 07:01:25;;;;;;;15.60;8.10;;;;;;;13.37;32.37;100733.81;117339;1186;21865;-89
2022/03/25 07:03:55;;;;;;;16.30;7.90;;;;;;;13.49;32.26;100742.09;117422;1185;21853;-91
2022/03/25 07:06:24;;;;;;;15.70;9.00;;;;;;;13.62;32.21;100741.15;117448;1185;22902;-90
2022/03/25 07:08:55;;;;;;;12.70;7.80;;;;;;;13.66;31.99;100738.06;117345;1185;21858;-89
2022/03/25 07:11:45;;;;;;;16.10;9.10;;;;;;;13.62;31.74;100739.38;117496;1186;23526;-90
2022/03/25 07:14:14;;;;;;;10.90;7.20;;;;;;;13.69;31.93;100738.36;117265;1186;22720;-90
2022/03/25 07:17:03;;;;;;;12.80;8.40;;;;;;;13.90;31.92;100739.55;117416;1185;22837;-88
2022/03/25 07:19:33;;;;;;;11.60;8.70;;;;;;;14.15;32.17;100738.67;117435;1186;22723;-90
2022/03/25 07:22:02;;;;;;;10.80;8.10;;;;;;;14.43;32.01;100739.46;117367;1187;24153;-89
2022/03/25 07:24:31;;;;;;;18.20;9.20;;;;;;;14.70;32.01;100736.41;117597;1185;21842;-89
2022/03/25 07:27:00;;;;;;;24.00;8.70;;;;;;;14.83;31.82;100739.83;117718;1185;21870;-89
2022/03/25 07:29:30;;;;;;;12.20;8.10;;;;;;;14.93;31.81;100739.39;117428;1182;21852;-89
2022/03/25 07:31:59;;;;;;;12.10;8.60;;;;;;;15.17;31.87;100741.63;117327;1188;21857;-89
2022/03/25 07:34:28;;;;;;;11.40;7.80;;;;;;;15.43;31.75;100744.31;117745;1185;22622;-89
2022/03/25 07:36:58;;;;;;;11.90;8.30;;;;;;;15.67;31.69;100742.61;117470;1187;21880;-88
2022/03/25 07:39:27;;;;;;;10.10;7.80;;;;;;;16.00;31.84;100742.96;117513;1186;22700;-89
2022/03/25 07:42:07;;;;;;;9.20;7.10;;;;;;;16.31;31.80;100739.58;117431;1187;21970;-89
2022/03/25 07:44:39;;;;;;;11.00;7.30;;;;;;;16.55;31.61;100739.35;117648;1185;21852;-88
2022/03/25 07:47:08;;;;;;;11.40;8.10;;;;;;;16.78;31.59;100741.45;117627;1185;21857;-90
2022/03/25 07:49:39;;;;;;;14.00;9.10;;;;;;;17.01;31.57;100735.42;117730;1186;21861;-90
2022/03/25 07:52:10;;;;;;;19.80;9.20;;;;;;;17.23;31.56;100742.48;117763;1186;21862;-89
2022/03/25 07:54:40;;;;;;;14.80;10.50;;;;;;;17.42;31.40;100740.77;117755;1186;21859;-90
2022/03/25 07:57:10;;;;;;;16.90;10.40;;;;;;;17.54;31.09;100742.48;117706;1186;23190;-90
2022/03/25 07:59:40;;;;;;;12.90;9.50;;;;;;;17.59;30.82;100743.21;117732;1185;21873;-90
2022/03/25 08:02:11;;;;;;;13.20;9.70;;;;;;;17.52;30.74;100744.52;118012;1187;21843;-90
2022/03/25 08:04:43;;;;;;;14.80;10.40;;;;;;;17.31;30.39;100744.17;118141;1186;22652;-89
2022/03/25 08:07:12;;;;;;;14.70;9.90;;;;;;;17.08;30.22;100746.20;118025;1187;21876;-89
2022/03/25 08:09:41;;;;;;;15.30;10.60;;;;;;;16.89;30.04;100746.98;118028;1186;22620;-90
2022/03/25 08:12:13;;;;;;;15.50;9.80;;;;;;;16.78;30.16;100745.38;118481;1188;21832;-90
2022/03/25 08:14:57;;;;;;;15.60;10.80;;;;;;;16.79;30.18;100745.69;117919;1186;21865;-89
2022/03/25 08:17:26;;;;;;;13.70;10.20;;;;;;;16.89;30.31;100746.44;117836;1188;21899;-91
2022/03/25 08:19:55;;;;;;;12.80;9.10;;;;;;;17.00;30.31;100746.80;118242;1185;22610;-89
2022/03/25 08:22:24;;;;;;;10.80;8.30;;;;;;;17.22;30.32;100748.58;118123;1187;21855;-91
2022/03/25 08:28:00;;;;;;;11.70;7.60;;;;;;;17.51;29.91;100748.42;118054;1185;22468;-89
2022/03/25 08:30:33;;;;;;;11.00;7.40;;;;;;;17.33;29.59;100751.20;117999;1187;22951;-89
2022/03/25 08:33:03;;;;;;;11.10;7.60;;;;;;;17.17;29.73;100752.26;118257;1185;21842;-89
2022/03/25 08:35:37;;;;;;;11.50;9.00;;;;;;;17.16;29.75;100750.89;117613;1185;21852;-89
2022/03/25 08:38:06;;;;;;;12.20;8.70;;;;;;;17.10;29.49;100754.28;117467;1186;21864;-88
2022/03/25 08:40:36;;;;;;;12.40;9.70;;;;;;;16.99;29.42;100755.89;117670;1186;21893;-88
2022/03/25 08:43:28;;;;;;;12.00;9.20;;;;;;;16.73;29.25;100756.15;117399;1187;22905;-89
2022/03/25 08:45:57;;;;;;;12.40;9.40;;;;;;;16.63;29.33;100763.04;117634;1185;21855;-90
2022/03/25 08:48:29;;;;;;;11.90;9.50;;;;;;;16.55;29.24;100761.70;117489;1183;22997;-90
2022/03/25 08:50:59;;;;;;;12.10;8.50;;;;;;;16.47;29.25;100765.47;117951;1185;22489;-89
2022/03/25 08:53:28;;;;;;;11.80;8.40;;;;;;;16.41;29.10;100763.89;117903;1185;22660;-89
2022/03/25 08:56:05;;;;;;;11.90;8.20;;;;;;;16.27;29.16;100763.06;118028;1186;21863;-90
2022/03/25 08:58:35;;;;;;;11.50;8.20;;;;;;;16.27;29.28;100767.67;117829;1186;21952;-88
2022/03/25 09:01:11;;;;;;;11.90;8.50;;;;;;;16.32;29.43;100763.98;117763;1186;21848;-91
2022/03/25 09:03:44;;;;;;;13.70;9.10;;;;;;;16.44;29.49;100767.66;117304;1185;23539;-90
2022/03/25 09:06:17;;;;;;;13.40;8.50;;;;;;;16.53;29.39;100767.94;117102;1188;22088;-90
2022/03/25 09:08:46;;;;;;;11.90;8.30;;;;;;;16.67;29.43;100770.34;117196;1188;21856;-93
2022/03/25 09:11:14;;;;;;;12.80;8.80;;;;;;;16.81;29.39;100774.69;117593;1185;23459;-90
2022/03/25 09:13:43;;;;;;;13.40;8.70;;;;;;;16.89;29.30;100772.13;117616;1185;21856;-90
2022/03/25 09:16:13;;;;;;;10.40;7.70;;;;;;;16.96;29.25;100773.01;117389;1186;21853;-90
2022/03/25 09:18:42;;;;;;;12.70;9.20;;;;;;;16.94;29.17;100771.95;117484;1187;21864;-88
2022/03/25 09:21:12;;;;;;;11.10;9.10;;;;;;;16.89;29.03;100772.84;117514;1185;21872;-90
2022/03/25 09:23:42;;;;;;;11.40;8.70;;;;;;;16.87;29.17;100777.52;117534;1188;22790;-89
2022/03/25 09:26:12;;;;;;;16.60;10.10;;;;;;;17.00;29.36;100771.61;117897;1186;21883;-92
2022/03/25 09:28:46;;;;;;;13.30;9.30;;;;;;;17.17;29.28;100773.91;117766;1187;23461;-90
2022/03/25 09:31:15;;;;;;;14.30;9.50;;;;;;;17.24;29.13;100776.68;117618;1187;23218;-87
2022/03/25 09:36:52;;;;;;;14.70;9.70;;;;;;;17.04;28.92;100776.29;117725;1187;22922;-89
2022/03/25 09:39:21;;;;;;;12.60;9.70;;;;;;;16.93;28.86;100773.08;117720;1187;21864;-90
2022/03/25 09:41:53;;;;;;;13.10;9.10;;;;;;;16.75;28.78;100780.35;118016;1187;23470;-90
2022/03/25 09:44:51;;;;;;;13.00;9.40;;;;;;;16.64;28.83;100783.36;117728;1188;22061;-90
2022/03/25 09:47:23;;;;;;;14.10;9.00;;;;;;;16.53;28.69;100780.14;117629;1186;21853;-90
2022/03/25 09:49:52;;;;;;;12.30;9.70;;;;;;;16.37;28.69;100785.95;117634;1186;21885;-89
2022/03/25 09:52:21;;;;;;;16.60;9.30;;;;;;;16.28;28.64;100782.50;117999;1188;21918;-90
2022/03/25 09:55:20;;;;;;;11.80;9.90;;;;;;;16.28;28.75;100784.65;117696;1186;21878;-89
2022/03/25 09:57:52;;;;;;;13.60;11.70;;;;;;;16.43;29.00;100776.22;117568;1186;21874;-90
2022/03/25 10:00:26;;;;;;;14.10;9.70;;;;;;;16.80;29.36;100776.52;117453;1188;21858;-88
2022/03/25 10:03:03;;;;;;;16.90;10.80;;;;;;;17.31;29.48;100772.53;117386;1183;21847;-88
2022/03/25 10:05:36;;;;;;;12.00;8.90;;;;;;;17.79;29.50;100774.61;117214;1187;22111;-88
2022/03/25 10:08:09;;;;;;;9.80;8.00;;;;;;;18.05;29.27;100774.75;117396;1188;23429;-88
2022/03/25 10:10:46;;;;;;;12.50;8.90;;;;;;;18.34;29.28;100771.89;117422;1186;24588;-88
2022/03/25 10:13:19;;;;;;;10.60;8.30;;;;;;;18.57;29.24;100770.67;117395;1186;23391;-86
2022/03/25 10:15:57;;;;;;;12.10;8.10;;;;;;;18.78;29.21;100767.85;117479;1186;22911;-90
2022/03/25 10:18:34;;;;;;;11.50;7.40;;;;;;;19.01;29.45;100768.76;117551;1186;21855;-89
2022/03/25 10:21:05;;;;;;;11.50;7.20;;;;;;;19.14;29.15;100770.54;117571;1187;21877;-88
2022/03/25 10:23:34;;;;;;;;;;;;;;;19.17;29.07;100769.53;117620;1186;22914;-88
2022/03/25 10:26:03;;;;;;;14.60;7.60;;;;;;;19.07;28.78;100773.85;117463;1187;22357;-92
2022/03/25 10:28:36;;;;;;;9.70;7.50;;;;;;;18.91;28.69;100773.59;117581;1187;22839;-90
2022/03/25 10:31:18;;;;;;;13.10;8.40;;;;;;;18.89;28.81;100770.29;117869;1187;21925;-90
2022/03/25 10:33:54;;;;;;;9.60;7.20;;;;;;;19.09;28.77;100767.89;117442;1188;21859;-86
2022/03/25 10:36:25;;;;;;;9.30;7.50;;;;;;;19.14;28.59;100770.17;117526;1186;21831;-85
2022/03/25 10:39:01;;;;;;;9.80;6.90;;;;;;;19.07;28.43;100773.35;117392;1187;21851;-87
2022/03/25 10:41:49;;;;;;;9.20;7.40;;;;;;;18.86;28.32;100775.00;117451;1186;21863;-86
2022/03/25 10:44:36;;;;;;;11.00;8.20;;;;;;;18.76;28.30;100778.96;117378;1187;21880;-86
2022/03/25 10:47:20;;;;;;;10.20;7.70;;;;;;;18.65;28.18;100778.88;117391;1185;21865;-86
2022/03/25 10:49:49;;;;;;;13.90;9.00;;;;;;;18.52;28.10;100778.48;117572;1186;22956;-85
2022/03/25 10:52:31;;;;;;;14.80;10.00;;;;;;;18.34;28.09;100781.31;117431;1187;22710;-87
2022/03/25 10:55:36;;;;;;;12.80;9.90;;;;;;;18.22;27.98;100783.16;117334;1188;23460;-86
2022/03/25 10:58:10;;;;;;;13.80;10.70;;;;;;;18.09;28.04;100787.60;117174;1189;21959;-87
2022/03/25 11:00:39;;;;;;;14.70;9.90;;;;;;;17.97;27.94;100788.90;117076;1190;22649;-86
2022/03/25 11:03:14;;;;;;;13.30;10.30;;;;;;;17.78;27.88;100790.64;117144;1191;23440;-87
2022/03/25 11:05:46;;;;;;;13.80;10.00;;;;;;;17.51;27.71;100797.26;117104;1190;22127;-86
2022/03/25 11:08:15;;;;;;;12.90;9.90;;;;;;;17.29;27.80;100795.66;117082;1190;23025;-86
2022/03/25 11:10:49;;;;;;;13.30;9.80;;;;;;;17.19;27.77;100802.55;117006;1191;22464;-87
2022/03/25 11:13:37;;;;;;;14.70;10.40;;;;;;;17.05;27.74;100807.44;116990;1190;23540;-87
2022/03/25 11:16:07;;;;;;;12.80;10.40;;;;;;;16.97;27.82;100808.77;116989;1192;21860;-86
2022/03/25 11:18:37;;;;;;;18.80;9.40;;;;;;;16.93;27.82;100814.18;117061;1189;22655;-85
2022/03/25 11:21:06;;;;;;;13.10;8.60;;;;;;;16.88;27.88;100817.54;116987;1191;21858;-87
2022/03/25 11:23:55;;;;;;;12.90;8.20;;;;;;;16.80;27.80;100828.94;116990;1191;22296;-83
2022/03/25 11:26:25;;;;;;;12.10;8.60;;;;;;;16.72;27.84;100830.08;116997;1190;23469;-85
2022/03/25 11:28:56;;;;;;;14.20;7.70;;;;;;;16.65;27.92;100835.06;117133;1190;23586;-85
2022/03/25 11:31:26;;;;;;;14.20;8.50;;;;;;;16.65;28.14;100837.55;116954;1190;21853;-86
2022/03/25 11:34:12;;;;;;;15.00;9.00;;;;;;;16.72;28.15;100838.25;117590;1186;21853;-86
2022/03/25 11:36:43;;;;;;;11.50;7.90;;;;;;;16.88;28.34;100840.40;117539;1187;21853;-86
2022/03/25 11:39:18;;;;;;;11.20;8.40;;;;;;;17.06;28.35;100844.30;117416;1188;22913;-85
2022/03/25 11:41:47;;;;;;;12.40;8.40;;;;;;;17.26;28.52;100850.73;117554;1181;21871;-86